sensor_id;sensor_type;location;lat;lon;timestamp;temperature;humidity
67759;SHT31;54562;47.620;18.786;2022-09-21T00:00:23;8.04;84.04
67759;SHT31;54562;47.620;18.786;2022-09-21T00:03:34;8.02;84.03
67759;SHT31;54562;47.620;18.786;2022-09-21T00:06:44;7.99;84.07
67759;SHT31;54562;47.620;18.786;2022-09-21T00:09:53;7.98;84.09
67759;SHT31;54562;47.620;18.786;2022-09-21T00:13:02;7.95;84.12
67759;SHT31;54562;47.620;18.786;2022-09-21T00:16:11;7.97;84.24
67759;SHT31;54562;47.620;18.786;2022-09-21T00:19:22;7.98;84.27
67759;SHT31;54562;47.620;18.786;2022-09-21T00:22:35;7.98;84.18
67759;SHT31;54562;47.620;18.786;2022-09-21T00:25:44;7.97;84.16
67759;SHT31;54562;47.620;18.786;2022-09-21T00:28:53;7.94;84.03
67759;SHT31;54562;47.620;18.786;2022-09-21T00:32:03;7.91;84.03
67759;SHT31;54562;47.620;18.786;2022-09-21T00:35:12;7.90;83.93
67759;SHT31;54562;47.620;18.786;2022-09-21T00:38:21;7.88;83.96
67759;SHT31;54562;47.620;18.786;2022-09-21T00:41:30;7.88;84.14
67759;SHT31;54562;47.620;18.786;2022-09-21T00:44:39;7.89;84.28
67759;SHT31;54562;47.620;18.786;2022-09-21T00:47:49;7.90;84.37
67759;SHT31;54562;47.620;18.786;2022-09-21T00:51:00;7.92;84.48
67759;SHT31;54562;47.620;18.786;2022-09-21T00:54:13;7.95;84.55
67759;SHT31;54562;47.620;18.786;2022-09-21T00:57:27;7.98;84.56
67759;SHT31;54562;47.620;18.786;2022-09-21T01:00:38;7.98;84.51
67759;SHT31;54562;47.620;18.786;2022-09-21T01:03:47;7.94;84.65
67759;SHT31;54562;47.620;18.786;2022-09-21T01:07:00;7.95;84.74
67759;SHT31;54562;47.620;18.786;2022-09-21T01:10:15;7.95;84.82
67759;SHT31;54562;47.620;18.786;2022-09-21T01:13:27;7.97;84.90
67759;SHT31;54562;47.620;18.786;2022-09-21T01:16:52;7.97;84.96
67759;SHT31;54562;47.620;18.786;2022-09-21T01:20:18;8.00;85.00
67759;SHT31;54562;47.620;18.786;2022-09-21T01:27:47;8.02;85.00
67759;SHT31;54562;47.620;18.786;2022-09-21T01:31:10;8.01;84.93
67759;SHT31;54562;47.620;18.786;2022-09-21T01:34:32;8.02;84.82
67759;SHT31;54562;47.620;18.786;2022-09-21T01:37:47;8.02;84.61
67759;SHT31;54562;47.620;18.786;2022-09-21T01:41:01;8.02;84.59
67759;SHT31;54562;47.620;18.786;2022-09-21T01:44:14;8.02;84.50
67759;SHT31;54562;47.620;18.786;2022-09-21T01:47:26;8.01;84.45
67759;SHT31;54562;47.620;18.786;2022-09-21T01:50:36;7.99;84.43
67759;SHT31;54562;47.620;18.786;2022-09-21T01:53:53;7.95;84.56
67759;SHT31;54562;47.620;18.786;2022-09-21T01:57:08;7.91;84.72
67759;SHT31;54562;47.620;18.786;2022-09-21T02:00:25;7.89;84.88
67759;SHT31;54562;47.620;18.786;2022-09-21T02:03:37;7.87;84.91
67759;SHT31;54562;47.620;18.786;2022-09-21T02:06:50;7.84;84.99
67759;SHT31;54562;47.620;18.786;2022-09-21T02:09:59;7.82;85.01
67759;SHT31;54562;47.620;18.786;2022-09-21T02:13:11;7.79;85.10
67759;SHT31;54562;47.620;18.786;2022-09-21T02:16:25;7.80;85.08
67759;SHT31;54562;47.620;18.786;2022-09-21T02:19:44;7.79;85.04
67759;SHT31;54562;47.620;18.786;2022-09-21T02:23:00;7.76;85.01
67759;SHT31;54562;47.620;18.786;2022-09-21T02:26:18;7.74;85.00
67759;SHT31;54562;47.620;18.786;2022-09-21T02:29:36;7.68;85.00
67759;SHT31;54562;47.620;18.786;2022-09-21T02:32:56;7.59;85.03
67759;SHT31;54562;47.620;18.786;2022-09-21T02:36:14;7.52;85.13
67759;SHT31;54562;47.620;18.786;2022-09-21T02:39:37;7.43;85.26
67759;SHT31;54562;47.620;18.786;2022-09-21T02:42:54;7.37;85.43
67759;SHT31;54562;47.620;18.786;2022-09-21T02:46:08;7.35;85.54
67759;SHT31;54562;47.620;18.786;2022-09-21T02:49:23;7.31;85.63
67759;SHT31;54562;47.620;18.786;2022-09-21T02:52:37;7.27;85.73
67759;SHT31;54562;47.620;18.786;2022-09-21T02:55:49;7.26;85.82
67759;SHT31;54562;47.620;18.786;2022-09-21T02:59:01;7.22;85.93
67759;SHT31;54562;47.620;18.786;2022-09-21T03:02:11;7.20;86.02
67759;SHT31;54562;47.620;18.786;2022-09-21T03:05:19;7.18;86.15
67759;SHT31;54562;47.620;18.786;2022-09-21T03:08:27;7.19;86.23
67759;SHT31;54562;47.620;18.786;2022-09-21T03:11:35;7.18;86.28
67759;SHT31;54562;47.620;18.786;2022-09-21T03:14:45;7.17;86.34
67759;SHT31;54562;47.620;18.786;2022-09-21T03:17:53;7.16;86.44
67759;SHT31;54562;47.620;18.786;2022-09-21T03:21:02;7.17;86.57
67759;SHT31;54562;47.620;18.786;2022-09-21T03:24:10;7.18;86.63
67759;SHT31;54562;47.620;18.786;2022-09-21T03:27:39;7.20;86.76
67759;SHT31;54562;47.620;18.786;2022-09-21T03:30:48;7.24;86.84
67759;SHT31;54562;47.620;18.786;2022-09-21T03:33:57;7.27;86.90
67759;SHT31;54562;47.620;18.786;2022-09-21T03:37:04;7.30;86.93
67759;SHT31;54562;47.620;18.786;2022-09-21T03:40:14;7.33;87.01
67759;SHT31;54562;47.620;18.786;2022-09-21T03:43:23;7.37;87.08
67759;SHT31;54562;47.620;18.786;2022-09-21T03:46:31;7.41;87.13
67759;SHT31;54562;47.620;18.786;2022-09-21T03:49:39;7.45;87.16
67759;SHT31;54562;47.620;18.786;2022-09-21T03:52:47;7.48;87.19
67759;SHT31;54562;47.620;18.786;2022-09-21T03:55:55;7.51;87.19
67759;SHT31;54562;47.620;18.786;2022-09-21T03:59:04;7.54;87.11
67759;SHT31;54562;47.620;18.786;2022-09-21T04:02:16;7.56;87.14
67759;SHT31;54562;47.620;18.786;2022-09-21T04:05:25;7.59;87.13
67759;SHT31;54562;47.620;18.786;2022-09-21T04:08:33;7.59;87.13
67759;SHT31;54562;47.620;18.786;2022-09-21T04:11:43;7.62;87.12
67759;SHT31;54562;47.620;18.786;2022-09-21T04:14:53;7.63;87.10
67759;SHT31;54562;47.620;18.786;2022-09-21T04:18:01;7.65;87.12
67759;SHT31;54562;47.620;18.786;2022-09-21T04:21:10;7.64;87.00
67759;SHT31;54562;47.620;18.786;2022-09-21T04:24:18;7.62;86.99
67759;SHT31;54562;47.620;18.786;2022-09-21T04:27:26;7.56;86.96
67759;SHT31;54562;47.620;18.786;2022-09-21T04:30:34;7.53;87.03
67759;SHT31;54562;47.620;18.786;2022-09-21T04:33:43;7.49;87.12
67759;SHT31;54562;47.620;18.786;2022-09-21T04:36:54;7.46;87.13
67759;SHT31;54562;47.620;18.786;2022-09-21T04:40:03;7.44;87.20
67759;SHT31;54562;47.620;18.786;2022-09-21T04:43:13;7.43;87.29
67759;SHT31;54562;47.620;18.786;2022-09-21T04:46:25;7.42;87.32
67759;SHT31;54562;47.620;18.786;2022-09-21T04:49:33;7.40;87.41
67759;SHT31;54562;47.620;18.786;2022-09-21T04:52:41;7.41;87.53
67759;SHT31;54562;47.620;18.786;2022-09-21T04:55:50;7.43;87.60
67759;SHT31;54562;47.620;18.786;2022-09-21T04:58:58;7.43;87.57
67759;SHT31;54562;47.620;18.786;2022-09-21T05:02:07;7.41;87.58
67759;SHT31;54562;47.620;18.786;2022-09-21T05:05:15;7.42;87.59
67759;SHT31;54562;47.620;18.786;2022-09-21T05:08:25;7.44;87.62
67759;SHT31;54562;47.620;18.786;2022-09-21T05:11:47;7.44;87.61
67759;SHT31;54562;47.620;18.786;2022-09-21T05:14:56;7.47;87.69
67759;SHT31;54562;47.620;18.786;2022-09-21T05:18:04;7.47;87.61
67759;SHT31;54562;47.620;18.786;2022-09-21T05:21:13;7.47;87.60
67759;SHT31;54562;47.620;18.786;2022-09-21T05:24:21;7.49;87.71
67759;SHT31;54562;47.620;18.786;2022-09-21T05:27:29;7.54;87.82
67759;SHT31;54562;47.620;18.786;2022-09-21T05:30:37;7.60;87.89
67759;SHT31;54562;47.620;18.786;2022-09-21T05:34:10;7.64;87.90
67759;SHT31;54562;47.620;18.786;2022-09-21T05:37:42;7.70;87.89
67759;SHT31;54562;47.620;18.786;2022-09-21T05:40:57;7.75;87.94
67759;SHT31;54562;47.620;18.786;2022-09-21T05:44:08;7.82;87.94
67759;SHT31;54562;47.620;18.786;2022-09-21T05:47:21;7.87;87.90
67759;SHT31;54562;47.620;18.786;2022-09-21T05:50:41;7.94;87.90
67759;SHT31;54562;47.620;18.786;2022-09-21T05:54:02;7.97;87.86
67759;SHT31;54562;47.620;18.786;2022-09-21T05:57:23;8.00;87.82
67759;SHT31;54562;47.620;18.786;2022-09-21T06:00:46;8.05;87.83
67759;SHT31;54562;47.620;18.786;2022-09-21T06:04:10;8.09;87.89
67759;SHT31;54562;47.620;18.786;2022-09-21T06:07:19;8.13;87.88
67759;SHT31;54562;47.620;18.786;2022-09-21T06:10:27;8.16;87.89
67759;SHT31;54562;47.620;18.786;2022-09-21T06:13:40;8.22;88.00
67759;SHT31;54562;47.620;18.786;2022-09-21T06:16:48;8.30;88.06
67759;SHT31;54562;47.620;18.786;2022-09-21T06:19:56;8.36;88.01
67759;SHT31;54562;47.620;18.786;2022-09-21T06:23:05;8.44;88.01
67759;SHT31;54562;47.620;18.786;2022-09-21T06:26:16;8.53;88.04
67759;SHT31;54562;47.620;18.786;2022-09-21T06:29:24;8.61;88.00
67759;SHT31;54562;47.620;18.786;2022-09-21T06:32:32;8.68;88.00
67759;SHT31;54562;47.620;18.786;2022-09-21T06:35:40;8.73;87.92
67759;SHT31;54562;47.620;18.786;2022-09-21T06:38:54;8.77;87.79
67759;SHT31;54562;47.620;18.786;2022-09-21T06:42:03;8.80;87.70
67759;SHT31;54562;47.620;18.786;2022-09-21T06:45:11;8.89;87.79
67759;SHT31;54562;47.620;18.786;2022-09-21T06:48:19;8.97;87.78
67759;SHT31;54562;47.620;18.786;2022-09-21T06:51:28;9.06;87.78
67759;SHT31;54562;47.620;18.786;2022-09-21T06:54:36;9.12;87.67
67759;SHT31;54562;47.620;18.786;2022-09-21T06:57:44;9.21;87.61
67759;SHT31;54562;47.620;18.786;2022-09-21T07:00:53;9.30;87.60
67759;SHT31;54562;47.620;18.786;2022-09-21T07:04:02;9.36;87.52
67759;SHT31;54562;47.620;18.786;2022-09-21T07:07:12;9.43;87.49
67759;SHT31;54562;47.620;18.786;2022-09-21T07:10:20;9.51;87.56
67759;SHT31;54562;47.620;18.786;2022-09-21T07:13:28;9.63;87.76
67759;SHT31;54562;47.620;18.786;2022-09-21T07:16:37;9.74;87.68
67759;SHT31;54562;47.620;18.786;2022-09-21T07:19:45;9.83;87.69
67759;SHT31;54562;47.620;18.786;2022-09-21T07:22:53;9.93;87.57
67759;SHT31;54562;47.620;18.786;2022-09-21T07:26:03;10.07;87.45
67759;SHT31;54562;47.620;18.786;2022-09-21T07:29:14;10.18;87.09
67759;SHT31;54562;47.620;18.786;2022-09-21T07:32:23;10.28;86.81
67759;SHT31;54562;47.620;18.786;2022-09-21T07:35:33;10.50;87.00
67759;SHT31;54562;47.620;18.786;2022-09-21T07:38:41;10.65;86.85
67759;SHT31;54562;47.620;18.786;2022-09-21T07:41:50;10.91;86.76
67759;SHT31;54562;47.620;18.786;2022-09-21T07:44:59;11.19;86.49
67759;SHT31;54562;47.620;18.786;2022-09-21T07:48:08;11.48;86.29
67759;SHT31;54562;47.620;18.786;2022-09-21T07:51:16;11.75;85.87
67759;SHT31;54562;47.620;18.786;2022-09-21T07:54:24;11.91;85.56
67759;SHT31;54562;47.620;18.786;2022-09-21T07:57:32;12.03;85.09
67759;SHT31;54562;47.620;18.786;2022-09-21T08:00:58;12.05;84.56
67759;SHT31;54562;47.620;18.786;2022-09-21T08:04:10;11.96;83.97
67759;SHT31;54562;47.620;18.786;2022-09-21T08:07:18;11.85;83.62
67759;SHT31;54562;47.620;18.786;2022-09-21T08:10:27;11.75;83.51
67759;SHT31;54562;47.620;18.786;2022-09-21T08:13:36;11.66;83.44
67759;SHT31;54562;47.620;18.786;2022-09-21T08:16:43;11.59;83.35
67759;SHT31;54562;47.620;18.786;2022-09-21T08:19:52;11.53;83.37
67759;SHT31;54562;47.620;18.786;2022-09-21T08:23:00;11.52;83.40
67759;SHT31;54562;47.620;18.786;2022-09-21T08:26:10;11.52;83.41
67759;SHT31;54562;47.620;18.786;2022-09-21T08:29:22;11.53;83.18
67759;SHT31;54562;47.620;18.786;2022-09-21T08:32:30;11.54;83.07
67759;SHT31;54562;47.620;18.786;2022-09-21T08:35:54;11.54;83.05
67759;SHT31;54562;47.620;18.786;2022-09-21T08:39:06;11.56;82.93
67759;SHT31;54562;47.620;18.786;2022-09-21T08:42:18;11.61;82.74
67759;SHT31;54562;47.620;18.786;2022-09-21T08:45:43;11.68;82.50
67759;SHT31;54562;47.620;18.786;2022-09-21T08:48:52;11.80;82.61
67759;SHT31;54562;47.620;18.786;2022-09-21T08:52:06;12.06;82.60
67759;SHT31;54562;47.620;18.786;2022-09-21T08:55:19;12.44;82.61
67759;SHT31;54562;47.620;18.786;2022-09-21T08:58:28;12.78;82.26
67759;SHT31;54562;47.620;18.786;2022-09-21T09:01:44;13.06;81.86
67759;SHT31;54562;47.620;18.786;2022-09-21T09:05:05;13.15;81.32
67759;SHT31;54562;47.620;18.786;2022-09-21T09:12:34;13.05;80.29
67759;SHT31;54562;47.620;18.786;2022-09-21T09:15:57;13.13;80.31
67759;SHT31;54562;47.620;18.786;2022-09-21T09:19:20;13.22;80.12
67759;SHT31;54562;47.620;18.786;2022-09-21T09:22:38;13.33;79.91
67759;SHT31;54562;47.620;18.786;2022-09-21T09:25:50;13.61;79.93
67759;SHT31;54562;47.620;18.786;2022-09-21T09:29:09;13.97;79.85
67759;SHT31;54562;47.620;18.786;2022-09-21T09:32:28;14.18;79.28
67759;SHT31;54562;47.620;18.786;2022-09-21T09:35:44;14.37;78.82
67759;SHT31;54562;47.620;18.786;2022-09-21T09:39:02;14.64;78.43
67759;SHT31;54562;47.620;18.786;2022-09-21T09:42:29;15.04;78.38
67759;SHT31;54562;47.620;18.786;2022-09-21T09:45:52;15.25;77.07
67759;SHT31;54562;47.620;18.786;2022-09-21T09:49:18;15.14;76.15
67759;SHT31;54562;47.620;18.786;2022-09-21T09:52:42;15.13;75.93
67759;SHT31;54562;47.620;18.786;2022-09-21T09:55:52;15.40;75.67
67759;SHT31;54562;47.620;18.786;2022-09-21T09:59:03;15.70;75.56
67759;SHT31;54562;47.620;18.786;2022-09-21T10:02:20;15.89;74.70
67759;SHT31;54562;47.620;18.786;2022-09-21T10:05:32;16.01;74.24
67759;SHT31;54562;47.620;18.786;2022-09-21T10:08:42;15.98;73.80
67759;SHT31;54562;47.620;18.786;2022-09-21T10:11:51;15.94;73.08
67759;SHT31;54562;47.620;18.786;2022-09-21T10:15:02;16.16;72.13
67759;SHT31;54562;47.620;18.786;2022-09-21T10:18:19;16.45;71.82
67759;SHT31;54562;47.620;18.786;2022-09-21T10:21:33;16.67;71.06
67759;SHT31;54562;47.620;18.786;2022-09-21T10:24:51;16.47;70.63
67759;SHT31;54562;47.620;18.786;2022-09-21T10:28:04;16.22;70.54
67759;SHT31;54562;47.620;18.786;2022-09-21T10:31:20;15.98;69.84
67759;SHT31;54562;47.620;18.786;2022-09-21T10:34:31;16.01;70.03
67759;SHT31;54562;47.620;18.786;2022-09-21T10:37:40;16.29;70.21
67759;SHT31;54562;47.620;18.786;2022-09-21T10:40:51;16.40;68.96
67759;SHT31;54562;47.620;18.786;2022-09-21T10:44:01;16.19;67.80
67759;SHT31;54562;47.620;18.786;2022-09-21T10:50:21;16.79;67.62
67759;SHT31;54562;47.620;18.786;2022-09-21T10:53:40;17.03;66.81
67759;SHT31;54562;47.620;18.786;2022-09-21T10:56:58;16.83;66.00
67759;SHT31;54562;47.620;18.786;2022-09-21T11:00:27;17.03;65.69
67759;SHT31;54562;47.620;18.786;2022-09-21T11:03:48;16.97;65.06
67759;SHT31;54562;47.620;18.786;2022-09-21T11:07:06;16.85;65.05
67759;SHT31;54562;47.620;18.786;2022-09-21T11:10:23;16.80;64.40
67759;SHT31;54562;47.620;18.786;2022-09-21T11:13:43;17.06;64.27
67759;SHT31;54562;47.620;18.786;2022-09-21T11:17:06;17.18;63.38
67759;SHT31;54562;47.620;18.786;2022-09-21T11:20:24;17.20;63.03
67759;SHT31;54562;47.620;18.786;2022-09-21T11:23:43;16.88;62.26
67759;SHT31;54562;47.620;18.786;2022-09-21T11:27:05;16.65;63.22
67759;SHT31;54562;47.620;18.786;2022-09-21T11:30:21;17.12;63.83
67759;SHT31;54562;47.620;18.786;2022-09-21T11:33:46;17.60;63.43
67759;SHT31;54562;47.620;18.786;2022-09-21T11:37:12;18.00;62.30
67759;SHT31;54562;47.620;18.786;2022-09-21T11:43:58;18.80;61.32
67759;SHT31;54562;47.620;18.786;2022-09-21T11:47:43;18.92;59.65
67759;SHT31;54562;47.620;18.786;2022-09-21T11:51:07;18.63;58.97
67759;SHT31;54562;47.620;18.786;2022-09-21T11:54:50;18.60;58.95
67759;SHT31;54562;47.620;18.786;2022-09-21T11:58:38;18.88;58.94
67759;SHT31;54562;47.620;18.786;2022-09-21T12:02:08;19.24;58.57
67759;SHT31;54562;47.620;18.786;2022-09-21T12:09:52;19.27;56.58
67759;SHT31;54562;47.620;18.786;2022-09-21T12:13:20;18.65;57.15
67759;SHT31;54562;47.620;18.786;2022-09-21T12:16:39;17.89;58.90
67759;SHT31;54562;47.620;18.786;2022-09-21T12:19:59;17.29;59.79
67759;SHT31;54562;47.620;18.786;2022-09-21T12:23:18;16.93;61.70
67759;SHT31;54562;47.620;18.786;2022-09-21T12:26:37;16.67;62.43
67759;SHT31;54562;47.620;18.786;2022-09-21T12:30:28;16.52;62.91
67759;SHT31;54562;47.620;18.786;2022-09-21T12:33:48;16.49;63.27
67759;SHT31;54562;47.620;18.786;2022-09-21T12:37:03;16.47;63.33
67759;SHT31;54562;47.620;18.786;2022-09-21T12:40:20;16.37;63.08
67759;SHT31;54562;47.620;18.786;2022-09-21T12:43:37;16.22;63.43
67759;SHT31;54562;47.620;18.786;2022-09-21T12:46:54;16.09;63.18
67759;SHT31;54562;47.620;18.786;2022-09-21T12:50:17;15.96;63.29
67759;SHT31;54562;47.620;18.786;2022-09-21T12:53:32;16.21;63.47
67759;SHT31;54562;47.620;18.786;2022-09-21T12:56:45;16.54;62.16
67759;SHT31;54562;47.620;18.786;2022-09-21T13:00:33;16.85;60.78
67759;SHT31;54562;47.620;18.786;2022-09-21T13:03:55;17.06;60.45
67759;SHT31;54562;47.620;18.786;2022-09-21T13:11:11;17.55;57.83
67759;SHT31;54562;47.620;18.786;2022-09-21T13:14:24;17.91;57.22
67759;SHT31;54562;47.620;18.786;2022-09-21T13:17:38;18.31;56.33
67759;SHT31;54562;47.620;18.786;2022-09-21T13:20:47;18.57;55.59
67759;SHT31;54562;47.620;18.786;2022-09-21T13:23:58;18.83;55.23
67759;SHT31;54562;47.620;18.786;2022-09-21T13:27:10;18.96;55.03
67759;SHT31;54562;47.620;18.786;2022-09-21T13:30:30;18.58;54.35
67759;SHT31;54562;47.620;18.786;2022-09-21T13:37:40;17.68;55.45
67759;SHT31;54562;47.620;18.786;2022-09-21T13:41:33;17.76;56.15
67759;SHT31;54562;47.620;18.786;2022-09-21T13:45:12;17.54;56.37
67759;SHT31;54562;47.620;18.786;2022-09-21T13:48:55;17.21;56.92
67759;SHT31;54562;47.620;18.786;2022-09-21T13:52:07;17.23;57.56
67759;SHT31;54562;47.620;18.786;2022-09-21T13:55:30;17.53;57.70
67759;SHT31;54562;47.620;18.786;2022-09-21T13:58:42;17.51;57.40
67759;SHT31;54562;47.620;18.786;2022-09-21T14:01:54;17.34;57.21
67759;SHT31;54562;47.620;18.786;2022-09-21T14:05:05;17.45;56.35
67759;SHT31;54562;47.620;18.786;2022-09-21T14:08:30;17.38;55.78
67759;SHT31;54562;47.620;18.786;2022-09-21T14:11:46;17.09;55.57
67759;SHT31;54562;47.620;18.786;2022-09-21T14:15:08;16.72;55.39
67759;SHT31;54562;47.620;18.786;2022-09-21T14:18:47;16.37;55.85
67759;SHT31;54562;47.620;18.786;2022-09-21T14:25:50;16.65;55.85
67759;SHT31;54562;47.620;18.786;2022-09-21T14:29:05;16.82;55.39
67759;SHT31;54562;47.620;18.786;2022-09-21T14:32:24;17.01;54.28
67759;SHT31;54562;47.620;18.786;2022-09-21T14:35:39;17.04;54.05
67759;SHT31;54562;47.620;18.786;2022-09-21T14:38:51;17.13;54.37
67759;SHT31;54562;47.620;18.786;2022-09-21T14:42:08;17.18;54.13
67759;SHT31;54562;47.620;18.786;2022-09-21T14:45:23;17.17;54.25
67759;SHT31;54562;47.620;18.786;2022-09-21T14:48:42;17.21;54.56
67759;SHT31;54562;47.620;18.786;2022-09-21T14:52:05;17.14;54.11
67759;SHT31;54562;47.620;18.786;2022-09-21T14:55:40;16.99;54.29
67759;SHT31;54562;47.620;18.786;2022-09-21T14:59:09;16.85;54.27
67759;SHT31;54562;47.620;18.786;2022-09-21T15:02:41;16.73;54.42
67759;SHT31;54562;47.620;18.786;2022-09-21T15:05:54;16.59;54.54
67759;SHT31;54562;47.620;18.786;2022-09-21T15:09:34;16.43;54.53
67759;SHT31;54562;47.620;18.786;2022-09-21T15:13:21;16.16;54.47
67759;SHT31;54562;47.620;18.786;2022-09-21T15:16:44;15.92;54.33
67759;SHT31;54562;47.620;18.786;2022-09-21T15:19:57;15.71;54.57
67759;SHT31;54562;47.620;18.786;2022-09-21T15:23:19;15.52;54.84
67759;SHT31;54562;47.620;18.786;2022-09-21T15:26:29;15.38;55.38
67759;SHT31;54562;47.620;18.786;2022-09-21T15:29:41;15.30;55.97
67759;SHT31;54562;47.620;18.786;2022-09-21T15:32:53;15.23;56.27
67759;SHT31;54562;47.620;18.786;2022-09-21T15:36:04;15.11;56.48
67759;SHT31;54562;47.620;18.786;2022-09-21T15:39:21;15.03;56.78
67759;SHT31;54562;47.620;18.786;2022-09-21T15:42:32;14.95;57.21
67759;SHT31;54562;47.620;18.786;2022-09-21T15:46:02;14.90;57.49
67759;SHT31;54562;47.620;18.786;2022-09-21T15:49:15;14.89;57.77
67759;SHT31;54562;47.620;18.786;2022-09-21T15:52:28;14.85;58.01
67759;SHT31;54562;47.620;18.786;2022-09-21T15:55:45;14.79;58.20
67759;SHT31;54562;47.620;18.786;2022-09-21T15:58:57;14.74;58.82
67759;SHT31;54562;47.620;18.786;2022-09-21T16:02:11;14.66;58.91
67759;SHT31;54562;47.620;18.786;2022-09-21T16:05:27;14.58;59.11
67759;SHT31;54562;47.620;18.786;2022-09-21T16:08:36;14.51;58.97
67759;SHT31;54562;47.620;18.786;2022-09-21T16:11:46;14.43;59.15
67759;SHT31;54562;47.620;18.786;2022-09-21T16:15:00;14.33;59.53
67759;SHT31;54562;47.620;18.786;2022-09-21T16:18:28;14.23;59.73
67759;SHT31;54562;47.620;18.786;2022-09-21T16:21:45;14.12;60.12
67759;SHT31;54562;47.620;18.786;2022-09-21T16:25:18;14.03;60.53
67759;SHT31;54562;47.620;18.786;2022-09-21T16:28:38;13.93;61.10
67759;SHT31;54562;47.620;18.786;2022-09-21T16:31:47;13.85;61.36
67759;SHT31;54562;47.620;18.786;2022-09-21T16:35:22;13.76;61.68
67759;SHT31;54562;47.620;18.786;2022-09-21T16:38:33;13.68;61.97
67759;SHT31;54562;47.620;18.786;2022-09-21T16:41:47;13.61;62.33
67759;SHT31;54562;47.620;18.786;2022-09-21T16:45:02;13.50;62.87
67759;SHT31;54562;47.620;18.786;2022-09-21T16:48:27;13.43;63.21
67759;SHT31;54562;47.620;18.786;2022-09-21T16:51:36;13.36;63.33
67759;SHT31;54562;47.620;18.786;2022-09-21T16:54:43;13.27;63.41
67759;SHT31;54562;47.620;18.786;2022-09-21T16:57:52;13.20;63.36
67759;SHT31;54562;47.620;18.786;2022-09-21T17:01:02;13.13;63.32
67759;SHT31;54562;47.620;18.786;2022-09-21T17:04:12;13.07;63.28
67759;SHT31;54562;47.620;18.786;2022-09-21T17:07:20;13.00;63.32
67759;SHT31;54562;47.620;18.786;2022-09-21T17:10:29;12.93;63.22
67759;SHT31;54562;47.620;18.786;2022-09-21T17:13:45;12.85;63.26
67759;SHT31;54562;47.620;18.786;2022-09-21T17:16:55;12.80;63.28
67759;SHT31;54562;47.620;18.786;2022-09-21T17:20:12;12.73;63.44
67759;SHT31;54562;47.620;18.786;2022-09-21T17:23:23;12.67;63.57
67759;SHT31;54562;47.620;18.786;2022-09-21T17:26:32;12.61;63.78
67759;SHT31;54562;47.620;18.786;2022-09-21T17:29:40;12.57;64.11
67759;SHT31;54562;47.620;18.786;2022-09-21T17:32:52;12.51;64.34
67759;SHT31;54562;47.620;18.786;2022-09-21T17:36:01;12.46;64.64
67759;SHT31;54562;47.620;18.786;2022-09-21T17:39:10;12.39;64.89
67759;SHT31;54562;47.620;18.786;2022-09-21T17:42:19;12.34;65.22
67759;SHT31;54562;47.620;18.786;2022-09-21T17:45:29;12.27;65.53
67759;SHT31;54562;47.620;18.786;2022-09-21T17:48:47;12.19;65.71
67759;SHT31;54562;47.620;18.786;2022-09-21T17:51:59;12.12;66.01
67759;SHT31;54562;47.620;18.786;2022-09-21T17:55:30;12.04;66.36
67759;SHT31;54562;47.620;18.786;2022-09-21T17:58:42;11.96;66.63
67759;SHT31;54562;47.620;18.786;2022-09-21T18:02:00;11.91;66.79
67759;SHT31;54562;47.620;18.786;2022-09-21T18:05:24;11.83;67.07
67759;SHT31;54562;47.620;18.786;2022-09-21T18:08:35;11.76;67.28
67759;SHT31;54562;47.620;18.786;2022-09-21T18:15:43;11.59;67.92
67759;SHT31;54562;47.620;18.786;2022-09-21T18:19:21;11.50;68.22
67759;SHT31;54562;47.620;18.786;2022-09-21T18:22:47;11.43;68.56
67759;SHT31;54562;47.620;18.786;2022-09-21T18:26:09;11.38;68.81
67759;SHT31;54562;47.620;18.786;2022-09-21T18:29:27;11.33;69.03
67759;SHT31;54562;47.620;18.786;2022-09-21T18:32:54;11.28;69.32
67759;SHT31;54562;47.620;18.786;2022-09-21T18:36:17;11.22;69.63
67759;SHT31;54562;47.620;18.786;2022-09-21T18:39:37;11.17;69.81
67759;SHT31;54562;47.620;18.786;2022-09-21T18:42:56;11.12;69.93
67759;SHT31;54562;47.620;18.786;2022-09-21T18:46:21;11.07;70.21
67759;SHT31;54562;47.620;18.786;2022-09-21T18:49:41;11.03;70.30
67759;SHT31;54562;47.620;18.786;2022-09-21T18:53:00;10.97;70.47
67759;SHT31;54562;47.620;18.786;2022-09-21T18:56:22;10.93;70.64
67759;SHT31;54562;47.620;18.786;2022-09-21T18:59:35;10.89;70.99
67759;SHT31;54562;47.620;18.786;2022-09-21T19:02:45;10.84;70.90
67759;SHT31;54562;47.620;18.786;2022-09-21T19:09:51;10.76;71.51
67759;SHT31;54562;47.620;18.786;2022-09-21T19:13:21;10.72;71.56
67759;SHT31;54562;47.620;18.786;2022-09-21T19:16:47;10.66;71.67
67759;SHT31;54562;47.620;18.786;2022-09-21T19:20:14;10.61;72.11
67759;SHT31;54562;47.620;18.786;2022-09-21T19:27:20;10.51;72.32
67759;SHT31;54562;47.620;18.786;2022-09-21T19:30:41;10.44;72.55
67759;SHT31;54562;47.620;18.786;2022-09-21T19:33:52;10.40;72.72
67759;SHT31;54562;47.620;18.786;2022-09-21T19:37:01;10.36;72.93
67759;SHT31;54562;47.620;18.786;2022-09-21T19:40:11;10.32;73.03
67759;SHT31;54562;47.620;18.786;2022-09-21T19:43:21;10.25;73.17
67759;SHT31;54562;47.620;18.786;2022-09-21T19:46:39;10.19;73.32
67759;SHT31;54562;47.620;18.786;2022-09-21T19:49:52;10.15;73.54
67759;SHT31;54562;47.620;18.786;2022-09-21T19:53:18;10.09;73.69
67759;SHT31;54562;47.620;18.786;2022-09-21T19:56:46;10.04;73.74
67759;SHT31;54562;47.620;18.786;2022-09-21T20:00:14;10.03;73.93
67759;SHT31;54562;47.620;18.786;2022-09-21T20:03:25;10.04;74.00
67759;SHT31;54562;47.620;18.786;2022-09-21T20:06:42;10.05;73.97
67759;SHT31;54562;47.620;18.786;2022-09-21T20:10:11;10.07;73.99
67759;SHT31;54562;47.620;18.786;2022-09-21T20:13:48;10.05;74.15
67759;SHT31;54562;47.620;18.786;2022-09-21T20:17:20;10.02;74.33
67759;SHT31;54562;47.620;18.786;2022-09-21T20:20:43;9.99;74.43
67759;SHT31;54562;47.620;18.786;2022-09-21T20:23:52;9.96;74.59
67759;SHT31;54562;47.620;18.786;2022-09-21T20:27:09;9.90;74.74
67759;SHT31;54562;47.620;18.786;2022-09-21T20:30:30;9.83;74.92
67759;SHT31;54562;47.620;18.786;2022-09-21T20:33:42;9.78;75.18
67759;SHT31;54562;47.620;18.786;2022-09-21T20:36:50;9.73;75.37
67759;SHT31;54562;47.620;18.786;2022-09-21T20:40:00;9.72;75.61
67759;SHT31;54562;47.620;18.786;2022-09-21T20:43:09;9.68;75.79
67759;SHT31;54562;47.620;18.786;2022-09-21T20:46:18;9.64;75.95
67759;SHT31;54562;47.620;18.786;2022-09-21T20:49:27;9.60;76.13
67759;SHT31;54562;47.620;18.786;2022-09-21T20:52:35;9.57;76.21
67759;SHT31;54562;47.620;18.786;2022-09-21T20:55:51;9.53;76.32
67759;SHT31;54562;47.620;18.786;2022-09-21T20:59:03;9.48;76.59
67759;SHT31;54562;47.620;18.786;2022-09-21T21:02:12;9.44;76.72
67759;SHT31;54562;47.620;18.786;2022-09-21T21:05:20;9.40;76.93